createdAt,value
2019-01-31T00:01:32.702Z,97729.95
2019-01-31T00:04:40.380Z,97724.98
2019-01-31T00:07:44.941Z,97726.50
2019-01-31T00:10:33.460Z,97723.75
2019-01-31T00:13:18.415Z,97732.87
2019-01-31T00:16:39.778Z,97737.63
2019-01-31T00:19:44.121Z,97737.43
2019-01-31T00:22:47.533Z,97739.05
2019-01-31T00:25:34.902Z,97736.02
2019-01-31T00:28:26.715Z,97737.77
2019-01-31T00:31:22.282Z,97740.52
2019-01-31T00:34:19.036Z,97737.53
2019-01-31T00:37:18.307Z,97735.31
2019-01-31T00:40:48.177Z,97738.12
2019-01-31T00:44:04.715Z,97737.30
2019-01-31T00:46:56.254Z,97742.86
2019-01-31T00:49:48.341Z,97744.66
2019-01-31T00:52:32.362Z,97732.95
2019-01-31T00:55:17.905Z,97734.09
2019-01-31T00:58:20.903Z,97742.63
2019-01-31T01:01:23.913Z,97742.16
2019-01-31T01:04:17.996Z,97738.67
2019-01-31T01:07:28.340Z,97741.25
2019-01-31T01:10:21.101Z,97740.58
2019-01-31T01:13:12.026Z,97743.66
2019-01-31T01:16:10.064Z,97744.23
2019-01-31T01:19:14.148Z,97746.78
2019-01-31T01:22:13.326Z,97747.61
2019-01-31T01:25:19.167Z,97746.58
2019-01-31T01:28:20.169Z,97757.38
2019-01-31T01:31:18.079Z,97753.31
2019-01-31T01:34:05.138Z,97758.42
2019-01-31T01:36:54.123Z,97751.36
2019-01-31T01:39:30.211Z,97763.66
2019-01-31T01:42:38.132Z,97761.11
2019-01-31T01:45:43.722Z,97758.28
2019-01-31T01:48:47.702Z,97758.07
2019-01-31T01:52:04.390Z,97754.03
2019-01-31T01:54:47.545Z,97760.70
2019-01-31T01:57:37.564Z,97753.74
2019-01-31T02:00:26.683Z,97758.52
2019-01-31T02:03:10.846Z,97759.55
2019-01-31T02:05:55.902Z,97758.86
2019-01-31T02:08:45.309Z,97765.71
2019-01-31T02:11:32.599Z,97761.52
2019-01-31T02:14:24.559Z,97761.42
2019-01-31T02:17:19.037Z,97765.13
2019-01-31T02:20:02.471Z,97773.01
2019-01-31T02:23:23.190Z,97771.38
2019-01-31T02:26:24.776Z,97768.83
2019-01-31T02:32:17.783Z,97781.81
2019-01-31T02:34:59.840Z,97773.95
2019-01-31T02:38:04.052Z,97771.50
2019-01-31T02:40:49.354Z,97766.40
2019-01-31T02:43:39.617Z,97768.24
2019-01-31T02:46:48.105Z,97766.03
2019-01-31T02:50:00.380Z,97772.06
2019-01-31T02:53:08.240Z,97768.36
2019-01-31T02:55:48.391Z,97777.75
2019-01-31T02:58:28.245Z,97778.77
2019-01-31T03:01:36.702Z,97784.57
2019-01-31T03:04:19.062Z,97793.96
2019-01-31T03:07:51.790Z,97790.14
2019-01-31T03:10:40.838Z,97785.50
2019-01-31T03:13:25.033Z,97784.57
2019-01-31T03:16:39.674Z,97791.86
2019-01-31T03:19:30.699Z,97788.48
2019-01-31T03:22:23.619Z,97795.56
2019-01-31T03:25:13.262Z,97796.75
2019-01-31T03:28:29.109Z,97793.26
2019-01-31T03:31:33.403Z,97790.52
2019-01-31T03:34:15.584Z,97792.69
2019-01-31T03:37:29.031Z,97792.58
2019-01-31T03:40:26.442Z,97795.14
2019-01-31T03:43:07.432Z,97794.57
2019-01-31T03:46:25.717Z,97800.13
2019-01-31T03:49:07.978Z,97802.69
2019-01-31T03:52:04.843Z,97798.16
2019-01-31T03:55:21.684Z,97803.06
2019-01-31T03:58:10.950Z,97799.44
2019-01-31T04:01:04.888Z,97803.49
2019-01-31T04:04:06.030Z,97807.91
2019-01-31T04:06:34.834Z,97802.79
2019-01-31T04:09:01.388Z,97808.33
2019-01-31T04:11:27.971Z,97804.70
2019-01-31T04:13:54.525Z,97812.27
2019-01-31T04:16:21.096Z,97813.80
2019-01-31T04:18:47.644Z,97817.70
2019-01-31T04:21:14.314Z,97813.28
2019-01-31T04:23:40.866Z,97815.95
2019-01-31T04:26:08.898Z,97813.26
2019-01-31T04:28:35.444Z,97812.63
2019-01-31T04:31:02.005Z,97822.41
2019-01-31T04:33:28.553Z,97816.75
2019-01-31T04:35:55.109Z,97818.70
2019-01-31T04:38:21.653Z,97822.77
2019-01-31T04:40:48.223Z,97816.56
2019-01-31T04:43:14.801Z,97819.05
2019-01-31T04:45:41.351Z,97821.44
2019-01-31T04:48:07.939Z,97820.66
2019-01-31T04:50:34.479Z,97823.80
2019-01-31T04:53:01.050Z,97826.03
2019-01-31T04:55:27.611Z,97820.92
2019-01-31T04:57:54.221Z,97818.69
2019-01-31T05:00:20.780Z,97825.52
2019-01-31T05:02:47.370Z,97826.03
2019-01-31T05:05:13.898Z,97826.47
2019-01-31T05:07:40.470Z,97822.23
2019-01-31T05:10:08.710Z,97826.39
2019-01-31T05:12:35.572Z,97823.77
2019-01-31T05:15:02.161Z,97829.56
2019-01-31T05:17:29.110Z,97840.42
2019-01-31T05:19:56.005Z,97839.44
2019-01-31T05:22:22.576Z,97841.01
2019-01-31T05:24:49.566Z,97837.22
2019-01-31T05:27:16.142Z,97843.84
2019-01-31T05:29:42.695Z,97848.00
2019-01-31T05:32:09.279Z,97847.80
2019-01-31T05:34:35.831Z,97841.83
2019-01-31T05:37:02.406Z,97846.27
2019-01-31T05:39:29.210Z,97842.59
2019-01-31T05:41:55.781Z,97845.67
2019-01-31T05:44:22.744Z,97848.74
2019-01-31T05:46:49.312Z,97848.98
2019-01-31T05:49:15.874Z,97851.81
2019-01-31T05:51:42.472Z,97847.45
2019-01-31T05:54:09.035Z,97848.45
2019-01-31T05:56:35.594Z,97847.39
2019-01-31T05:59:02.161Z,97850.81
2019-01-31T06:01:28.702Z,97854.30
2019-01-31T06:03:55.268Z,97858.22
2019-01-31T06:06:21.819Z,97855.91
2019-01-31T06:08:48.385Z,97861.29
2019-01-31T06:11:14.961Z,97864.34
2019-01-31T06:13:41.571Z,97869.67
2019-01-31T06:16:08.146Z,97871.53
2019-01-31T06:18:35.011Z,97869.77
2019-01-31T06:21:01.563Z,97866.61
2019-01-31T06:23:28.137Z,97867.87
2019-01-31T06:25:54.688Z,97875.30
2019-01-31T06:28:21.255Z,97875.88
2019-01-31T06:30:48.122Z,97875.94
2019-01-31T06:33:14.690Z,97885.50
2019-01-31T06:35:41.242Z,97883.40
2019-01-31T06:38:07.809Z,97879.52
2019-01-31T06:40:34.349Z,97882.31
2019-01-31T06:43:00.923Z,97892.34
2019-01-31T06:45:27.473Z,97897.25
2019-01-31T06:47:54.042Z,97888.34
2019-01-31T06:50:20.599Z,97895.19
2019-01-31T06:52:47.755Z,97900.55
2019-01-31T06:55:14.346Z,97905.55
2019-01-31T06:57:40.902Z,97908.79
2019-01-31T07:00:11.413Z,97906.81
2019-01-31T07:02:37.974Z,97907.72
2019-01-31T07:05:04.954Z,97898.33
2019-01-31T07:07:31.504Z,97909.05
2019-01-31T07:09:58.087Z,97914.01
2019-01-31T07:12:24.650Z,97913.05
2019-01-31T07:14:51.221Z,97919.28
2019-01-31T07:17:18.429Z,97922.00
2019-01-31T07:19:46.236Z,97920.37
2019-01-31T07:22:12.786Z,97925.16
2019-01-31T07:24:39.364Z,97930.41
2019-01-31T07:27:05.908Z,97933.93
2019-01-31T07:29:32.478Z,97935.45
2019-01-31T07:31:59.020Z,97933.55
2019-01-31T07:34:25.594Z,97934.95
2019-01-31T07:36:52.146Z,97942.47
2019-01-31T07:39:18.721Z,97943.72
2019-01-31T07:41:45.285Z,97944.16
2019-01-31T07:44:11.859Z,97946.97
2019-01-31T07:46:38.413Z,97948.81
2019-01-31T07:49:04.962Z,97956.13
2019-01-31T07:51:31.508Z,97955.96
2019-01-31T07:53:58.077Z,97957.33
2019-01-31T07:56:24.645Z,97960.22
2019-01-31T07:58:51.258Z,97960.75
2019-01-31T08:01:17.806Z,97958.60
2019-01-31T08:03:44.389Z,97953.21
2019-01-31T08:06:10.935Z,97960.85
2019-01-31T08:08:37.480Z,97959.95
2019-01-31T08:11:04.053Z,97966.44
2019-01-31T08:13:30.610Z,97966.59
2019-01-31T08:15:59.632Z,97971.55
2019-01-31T08:18:26.176Z,97970.30
2019-01-31T08:20:52.758Z,97969.57
2019-01-31T08:23:19.312Z,97968.55
2019-01-31T08:25:45.892Z,97964.44
2019-01-31T08:28:12.467Z,97973.47
2019-01-31T08:30:40.455Z,97972.34
2019-01-31T08:33:07.002Z,97968.19
2019-01-31T08:35:33.580Z,97972.17
2019-01-31T08:38:00.138Z,97976.56
2019-01-31T08:40:26.715Z,97977.44
2019-01-31T08:42:53.263Z,97977.19
2019-01-31T08:45:19.842Z,97985.50
2019-01-31T08:47:46.401Z,97988.45
2019-01-31T08:50:15.417Z,97989.78
2019-01-31T08:52:41.981Z,97974.80
2019-01-31T08:55:08.562Z,97971.46
2019-01-31T08:57:35.103Z,97972.14
2019-01-31T09:00:01.705Z,97961.10
2019-01-31T09:02:28.262Z,97956.33
2019-01-31T09:04:54.822Z,97962.02
2019-01-31T09:07:21.359Z,97953.57
2019-01-31T09:09:47.935Z,97965.42
2019-01-31T09:12:15.567Z,97962.70
2019-01-31T09:14:42.296Z,97961.95
2019-01-31T09:17:08.829Z,97968.00
2019-01-31T09:19:35.377Z,97966.42
2019-01-31T09:22:49.719Z,97957.20
2019-01-31T09:25:33.666Z,97964.76
2019-01-31T09:28:26.227Z,97962.47
2019-01-31T09:31:35.077Z,97967.70
2019-01-31T09:34:38.352Z,97969.38
2019-01-31T09:37:26.822Z,97979.64
2019-01-31T09:40:09.837Z,97997.15
2019-01-31T09:42:54.889Z,97991.39
2019-01-31T09:45:44.231Z,97991.55
2019-01-31T09:48:42.474Z,97988.97
2019-01-31T09:51:41.971Z,97995.94
2019-01-31T09:54:50.847Z,97993.74
2019-01-31T09:57:56.827Z,97985.12
2019-01-31T10:00:46.065Z,97980.87
2019-01-31T10:03:47.551Z,97974.95
2019-01-31T10:06:42.325Z,97987.13
2019-01-31T10:09:43.868Z,97974.70
2019-01-31T10:12:42.491Z,97975.06
2019-01-31T10:15:44.992Z,97978.22
2019-01-31T10:18:55.712Z,97961.59
2019-01-31T10:21:55.460Z,97950.20
2019-01-31T10:24:55.980Z,97945.27
2019-01-31T10:28:06.349Z,97940.38
2019-01-31T10:30:49.558Z,97938.88
2019-01-31T10:33:42.001Z,97952.09
2019-01-31T10:36:33.407Z,97965.15
2019-01-31T10:39:52.359Z,97961.17
2019-01-31T10:42:51.751Z,97968.13
2019-01-31T10:45:38.980Z,97972.05
2019-01-31T10:48:34.289Z,97954.05
2019-01-31T10:51:44.555Z,97962.48
2019-01-31T10:54:20.631Z,97959.04
2019-01-31T10:57:37.343Z,97958.20
2019-01-31T11:00:51.596Z,97956.45
2019-01-31T11:04:21.263Z,97942.64
2019-01-31T11:07:31.940Z,97928.14
2019-01-31T11:10:52.091Z,97944.97
2019-01-31T11:13:53.542Z,97938.47
2019-01-31T11:17:07.352Z,97938.02
2019-01-31T11:19:51.744Z,97925.47
2019-01-31T11:22:48.198Z,97931.55
2019-01-31T11:25:29.666Z,97918.42
2019-01-31T11:28:37.339Z,97911.73
2019-01-31T11:31:26.257Z,97918.13
2019-01-31T11:34:15.277Z,97914.48
2019-01-31T11:37:06.097Z,97905.91
2019-01-31T11:40:06.536Z,97900.05
2019-01-31T11:42:48.102Z,97894.92
2019-01-31T11:45:53.770Z,97905.88
2019-01-31T11:48:38.838Z,97894.18
2019-01-31T11:51:41.516Z,97895.73
2019-01-31T11:54:45.702Z,97897.16
2019-01-31T11:57:48.710Z,97897.87
2019-01-31T12:00:17.829Z,97902.28
2019-01-31T12:02:54.473Z,97893.54
2019-01-31T12:05:12.872Z,97888.00
2019-01-31T12:07:39.449Z,97880.36
2019-01-31T12:10:06.083Z,97872.73
2019-01-31T12:12:32.960Z,97866.49
2019-01-31T12:14:59.506Z,97862.14
2019-01-31T12:17:26.087Z,97860.88
2019-01-31T12:19:52.662Z,97866.30
2019-01-31T12:22:19.214Z,97868.52
2019-01-31T12:24:45.779Z,97866.98
2019-01-31T12:27:12.439Z,97862.58
2019-01-31T12:29:39.030Z,97857.99
2019-01-31T12:32:05.597Z,97864.66
2019-01-31T12:34:32.174Z,97873.13
2019-01-31T12:36:58.743Z,97869.39
2019-01-31T12:39:25.311Z,97869.30
2019-01-31T12:41:51.889Z,97872.44
2019-01-31T12:44:18.462Z,97881.52
2019-01-31T12:46:45.010Z,97862.30
2019-01-31T12:49:11.583Z,97869.31
2019-01-31T12:51:38.131Z,97876.94
2019-01-31T12:54:04.690Z,97867.28
2019-01-31T12:56:31.264Z,97867.48
2019-01-31T12:58:57.814Z,97867.12
2019-01-31T13:01:24.403Z,97867.02
2019-01-31T13:03:50.957Z,97853.48
2019-01-31T13:06:17.535Z,97859.48
2019-01-31T13:08:44.108Z,97841.35
2019-01-31T13:11:10.712Z,97848.77
2019-01-31T13:13:45.883Z,97846.59
2019-01-31T13:16:05.737Z,97843.77
2019-01-31T13:18:32.335Z,97836.48
2019-01-31T13:20:58.931Z,97842.42
2019-01-31T13:23:25.509Z,97830.92
2019-01-31T13:25:52.074Z,97830.15
2019-01-31T13:28:18.615Z,97830.08
2019-01-31T13:30:45.188Z,97825.81
2019-01-31T13:33:11.725Z,97820.69
2019-01-31T13:35:38.293Z,97829.66
2019-01-31T13:38:04.832Z,97823.09
2019-01-31T13:40:31.501Z,97827.88
2019-01-31T13:42:58.045Z,97823.16
2019-01-31T13:45:27.030Z,97823.69
2019-01-31T13:47:53.570Z,97827.52
2019-01-31T13:50:20.104Z,97824.50
2019-01-31T13:52:46.677Z,97829.03
2019-01-31T13:55:18.820Z,97826.89
2019-01-31T13:57:44.989Z,97821.72
2019-01-31T14:00:12.258Z,97819.66
2019-01-31T14:02:38.822Z,97835.55
2019-01-31T14:05:06.064Z,97827.78
2019-01-31T14:07:32.618Z,97837.84
2019-01-31T14:09:59.191Z,97831.59
2019-01-31T14:12:25.761Z,97832.66
2019-01-31T14:14:52.330Z,97829.94
2019-01-31T14:17:18.881Z,97831.02
2019-01-31T14:19:45.422Z,97830.09
2019-01-31T14:22:11.984Z,97828.21
2019-01-31T14:24:38.534Z,97834.80
2019-01-31T14:27:05.091Z,97831.09
2019-01-31T14:29:31.618Z,97830.37
2019-01-31T14:31:58.186Z,97832.12
2019-01-31T14:34:24.796Z,97835.80
2019-01-31T14:36:51.347Z,97821.87
2019-01-31T14:39:17.906Z,97825.41
2019-01-31T14:41:44.481Z,97825.28
2019-01-31T14:44:20.187Z,97819.79
2019-01-31T14:46:39.515Z,97822.90
2019-01-31T14:49:06.079Z,97826.56
2019-01-31T14:51:35.765Z,97822.32
2019-01-31T14:54:02.348Z,97822.32
2019-01-31T14:56:28.902Z,97825.07
2019-01-31T14:58:55.481Z,97823.45
2019-01-31T15:01:22.048Z,97829.95
2019-01-31T15:03:51.435Z,97829.95
2019-01-31T15:06:17.078Z,97823.32
2019-01-31T15:08:43.626Z,97827.23
2019-01-31T15:11:10.216Z,97827.03
2019-01-31T15:13:36.788Z,97824.67
2019-01-31T15:16:03.773Z,97824.09
2019-01-31T15:18:30.342Z,97834.05
2019-01-31T15:20:56.888Z,97831.98
2019-01-31T15:23:23.462Z,97838.58
2019-01-31T15:25:50.044Z,97829.16
2019-01-31T15:28:16.618Z,97830.14
2019-01-31T15:30:43.163Z,97833.25
2019-01-31T15:33:11.632Z,97826.25
2019-01-31T15:35:38.183Z,97833.89
2019-01-31T15:38:04.754Z,97831.08
2019-01-31T15:40:34.193Z,97830.26
2019-01-31T15:43:00.753Z,97838.93
2019-01-31T15:45:27.327Z,97836.37
2019-01-31T15:47:53.961Z,97843.23
2019-01-31T15:50:20.817Z,97841.75
2019-01-31T15:52:47.381Z,97842.80
2019-01-31T15:55:15.165Z,97843.98
2019-01-31T15:57:41.743Z,97849.20
2019-01-31T16:00:33.004Z,97850.88
2019-01-31T16:02:59.593Z,97845.79
2019-01-31T16:05:26.141Z,97845.53
2019-01-31T16:07:52.707Z,97848.12
2019-01-31T16:10:19.331Z,97841.39
2019-01-31T16:12:45.964Z,97846.19
2019-01-31T16:15:12.694Z,97843.91
2019-01-31T16:17:39.233Z,97841.45
2019-01-31T16:20:07.126Z,97837.58
2019-01-31T16:22:33.691Z,97838.33
2019-01-31T16:25:00.381Z,97835.91
2019-01-31T16:27:26.898Z,97829.50
2019-01-31T16:29:53.464Z,97831.28
2019-01-31T16:32:20.036Z,97827.20
2019-01-31T16:34:46.586Z,97832.91
2019-01-31T16:37:13.163Z,97820.25
2019-01-31T16:39:39.750Z,97818.60
2019-01-31T16:42:06.305Z,97818.26
2019-01-31T16:44:32.855Z,97821.59
2019-01-31T16:46:59.454Z,97812.77
2019-01-31T16:49:26.009Z,97818.98
2019-01-31T16:51:52.617Z,97820.70
2019-01-31T16:54:19.164Z,97816.42
2019-01-31T16:56:45.736Z,97793.00
2019-01-31T16:59:12.302Z,97818.53
2019-01-31T17:01:38.860Z,97815.84
2019-01-31T17:04:05.425Z,97819.34
2019-01-31T17:06:31.976Z,97818.87
2019-01-31T17:08:58.654Z,97816.68
2019-01-31T17:11:25.234Z,97816.69
2019-01-31T17:13:51.810Z,97810.67
2019-01-31T17:16:18.353Z,97816.31
2019-01-31T17:18:44.950Z,97819.73
2019-01-31T17:21:11.514Z,97812.98
2019-01-31T17:23:38.091Z,97815.66
2019-01-31T17:26:04.661Z,97814.97
2019-01-31T17:28:31.233Z,97818.22
2019-01-31T17:30:57.797Z,97812.16
2019-01-31T17:33:24.398Z,97818.34
2019-01-31T17:35:50.968Z,97815.55
2019-01-31T17:38:17.560Z,97812.27
2019-01-31T17:40:44.123Z,97818.91
2019-01-31T17:43:11.586Z,97821.22
2019-01-31T17:45:38.150Z,97825.50
2019-01-31T17:48:05.762Z,97821.09
2019-01-31T17:50:32.358Z,97821.46
2019-01-31T17:52:58.932Z,97817.38
2019-01-31T17:55:25.527Z,97819.83
2019-01-31T17:57:52.098Z,97822.00
2019-01-31T18:00:24.878Z,97822.94
2019-01-31T18:02:51.430Z,97823.97
2019-01-31T18:05:18.141Z,97823.31
2019-01-31T18:07:44.658Z,97824.80
2019-01-31T18:10:14.195Z,97822.38
2019-01-31T18:12:40.777Z,97823.84
2019-01-31T18:15:07.395Z,97819.65
2019-01-31T18:17:33.961Z,97807.48
2019-01-31T18:20:00.531Z,97808.28
2019-01-31T18:22:27.109Z,97811.55
2019-01-31T18:24:53.722Z,97811.90
2019-01-31T18:27:20.288Z,97805.05
2019-01-31T18:29:46.859Z,97807.05
2019-01-31T18:32:13.449Z,97811.46
2019-01-31T18:34:39.964Z,97807.62
2019-01-31T18:37:06.927Z,97802.38
2019-01-31T18:39:33.481Z,97809.27
2019-01-31T18:42:00.067Z,97803.22
2019-01-31T18:44:26.633Z,97789.54
2019-01-31T18:46:53.193Z,97795.44
2019-01-31T18:49:19.768Z,97797.55
2019-01-31T18:51:46.353Z,97791.16
2019-01-31T18:54:18.146Z,97796.18
2019-01-31T18:56:44.725Z,97797.91
2019-01-31T18:59:11.334Z,97796.97
2019-01-31T19:01:37.894Z,97794.20
2019-01-31T19:04:04.587Z,97795.81
2019-01-31T19:06:31.148Z,97796.39
2019-01-31T19:08:57.850Z,97784.56
2019-01-31T19:11:24.446Z,97786.50
2019-01-31T19:13:51.009Z,97791.98
2019-01-31T19:16:17.603Z,97790.72
2019-01-31T19:18:44.142Z,97784.12
2019-01-31T19:21:10.734Z,97788.16
2019-01-31T19:23:37.274Z,97785.52
2019-01-31T19:26:03.839Z,97784.90
2019-01-31T19:28:30.404Z,97787.00
2019-01-31T19:30:56.959Z,97777.73
2019-01-31T19:33:23.515Z,97787.24
2019-01-31T19:35:50.095Z,97778.07
2019-01-31T19:38:16.645Z,97779.09
2019-01-31T19:40:44.367Z,97781.05
2019-01-31T19:43:10.954Z,97777.61
2019-01-31T19:45:39.511Z,97774.48
2019-01-31T19:48:06.077Z,97774.94
2019-01-31T19:50:32.624Z,97774.57
2019-01-31T19:52:59.195Z,97766.13
2019-01-31T19:55:25.757Z,97768.44
2019-01-31T19:57:52.324Z,97766.01
2019-01-31T20:00:19.526Z,97769.25
2019-01-31T20:02:46.093Z,97764.01
2019-01-31T20:05:12.918Z,97768.42
2019-01-31T20:07:39.576Z,97761.92
2019-01-31T20:10:07.204Z,97752.66
2019-01-31T20:12:34.611Z,97758.66
2019-01-31T20:15:01.499Z,97759.87
2019-01-31T20:17:28.046Z,97760.20
2019-01-31T20:19:54.595Z,97760.17
2019-01-31T20:22:22.081Z,97764.78
2019-01-31T20:24:48.631Z,97752.16
2019-01-31T20:27:15.230Z,97758.78
2019-01-31T20:29:41.823Z,97753.55
2019-01-31T20:32:08.402Z,97747.77
2019-01-31T20:34:37.784Z,97745.91
2019-01-31T20:37:03.419Z,97754.14
2019-01-31T20:39:29.957Z,97738.80
2019-01-31T20:41:56.539Z,97746.48
2019-01-31T20:44:23.065Z,97745.22
2019-01-31T20:46:49.629Z,97741.63
2019-01-31T20:49:16.172Z,97745.59
2019-01-31T20:51:42.729Z,97739.32
2019-01-31T20:54:09.296Z,97302.59
2019-01-31T20:56:35.839Z,97731.91
2019-01-31T20:59:02.439Z,97727.27
2019-01-31T21:01:29.004Z,97727.84
2019-01-31T21:03:55.565Z,97727.47
2019-01-31T21:06:22.116Z,97717.03
2019-01-31T21:08:49.511Z,97714.23
2019-01-31T21:11:16.035Z,97715.63
2019-01-31T21:13:42.632Z,97717.26
2019-01-31T21:16:09.184Z,97719.60
2019-01-31T21:18:35.764Z,97711.50
2019-01-31T21:21:05.187Z,97707.63
2019-01-31T21:23:30.793Z,97712.41
2019-01-31T21:25:57.358Z,97706.66
2019-01-31T21:28:23.930Z,97701.44
2019-01-31T21:30:50.494Z,97705.51
2019-01-31T21:33:17.083Z,97699.50
2019-01-31T21:35:43.636Z,97696.70
2019-01-31T21:38:10.309Z,97696.22
2019-01-31T21:40:37.688Z,97680.25
2019-01-31T21:43:04.296Z,97675.48
2019-01-31T21:45:30.874Z,97674.45
2019-01-31T21:47:57.608Z,97671.43
2019-01-31T21:50:24.780Z,97669.81
2019-01-31T21:52:51.330Z,97666.80
2019-01-31T21:55:17.914Z,97657.17
2019-01-31T21:57:44.511Z,97652.74
2019-01-31T22:00:19.317Z,97651.92
2019-01-31T22:02:46.391Z,97660.70
2019-01-31T22:05:13.211Z,97654.81
2019-01-31T22:07:39.759Z,97661.16
2019-01-31T22:10:07.207Z,97651.81
2019-01-31T22:12:33.791Z,97643.53
2019-01-31T22:15:00.384Z,97638.62
2019-01-31T22:17:27.038Z,97637.25
2019-01-31T22:19:53.618Z,97632.14
2019-01-31T22:22:20.191Z,97623.14
2019-01-31T22:24:46.781Z,97617.58
2019-01-31T22:27:13.329Z,97621.05
2019-01-31T22:29:39.905Z,97619.98
2019-01-31T22:32:06.451Z,97618.13
2019-01-31T22:34:33.050Z,97617.97
2019-01-31T22:37:00.620Z,97613.14
2019-01-31T22:39:27.234Z,97611.11
2019-01-31T22:41:53.790Z,97619.34
2019-01-31T22:44:20.357Z,97620.75
2019-01-31T22:46:47.202Z,97625.23
2019-01-31T22:49:13.782Z,97622.10
2019-01-31T22:51:42.378Z,97621.73
2019-01-31T22:54:08.953Z,97626.33
2019-01-31T22:56:35.503Z,97621.88
2019-01-31T22:59:02.101Z,97624.50
2019-01-31T23:01:50.573Z,97612.49
2019-01-31T23:04:17.269Z,97618.78
2019-01-31T23:06:43.823Z,97619.08
2019-01-31T23:09:11.341Z,97619.21
2019-01-31T23:11:37.902Z,97615.80
2019-01-31T23:14:04.447Z,97617.83
2019-01-31T23:16:31.012Z,97608.53
2019-01-31T23:18:57.554Z,97607.77
2019-01-31T23:21:24.143Z,97611.17
2019-01-31T23:23:50.687Z,97611.98
2019-01-31T23:26:17.260Z,97615.44
2019-01-31T23:28:43.808Z,97609.31
2019-01-31T23:31:10.385Z,97614.85
2019-01-31T23:33:36.943Z,97613.83
2019-01-31T23:36:03.700Z,97608.92
2019-01-31T23:38:30.258Z,97596.77
2019-01-31T23:40:56.822Z,97590.55
2019-01-31T23:43:23.371Z,97595.54
2019-01-31T23:45:49.943Z,97594.61
2019-01-31T23:48:16.493Z,97594.02
2019-01-31T23:50:43.064Z,97581.12
2019-01-31T23:53:09.626Z,97587.64
2019-01-31T23:55:36.196Z,97582.34
2019-01-31T23:58:02.745Z,97570.56
